createdAt,value
2022-11-02T00:01:29.851Z,92.66
2022-11-02T00:06:31.675Z,92.47
2022-11-02T00:11:33.506Z,93.69
2022-11-02T00:16:38.245Z,94.42
2022-11-02T00:21:40.712Z,95.00
2022-11-02T00:26:42.356Z,95.03
2022-11-02T00:31:44.105Z,94.80
2022-11-02T00:36:49.597Z,94.28
2022-11-02T00:41:54.758Z,94.53
2022-11-02T00:46:56.624Z,95.21
2022-11-02T00:51:59.537Z,94.13
2022-11-02T00:57:03.480Z,92.71
2022-11-02T01:02:05.746Z,93.13
2022-11-02T01:07:08.219Z,92.70
2022-11-02T01:12:11.489Z,93.24
2022-11-02T01:17:13.195Z,92.81
2022-11-02T01:22:15.956Z,93.42
2022-11-02T01:27:17.673Z,93.95
2022-11-02T01:32:19.807Z,93.96
2022-11-02T01:37:21.921Z,93.29
2022-11-02T01:42:26.565Z,92.96
2022-11-02T01:47:37.828Z,93.41
2022-11-02T01:52:40.261Z,93.50
2022-11-02T01:57:45.678Z,93.11
2022-11-02T02:02:54.402Z,92.89
2022-11-02T02:07:56.489Z,92.94
2022-11-02T02:12:58.394Z,91.30
2022-11-02T02:18:20.550Z,91.64
2022-11-02T02:23:46.448Z,92.27
2022-11-02T02:29:21.138Z,92.42
2022-11-02T02:34:30.573Z,92.26
2022-11-02T02:39:42.997Z,91.64
2022-11-02T02:45:17.850Z,92.41
2022-11-02T02:50:27.556Z,90.98
2022-11-02T02:55:34.373Z,90.75
2022-11-02T03:00:36.792Z,90.42
2022-11-02T03:05:38.947Z,90.64
2022-11-02T03:11:13.325Z,90.18
2022-11-02T03:16:32.489Z,90.21
2022-11-02T03:21:42.196Z,90.58
2022-11-02T03:26:51.075Z,90.86
2022-11-02T03:32:09.134Z,91.26
2022-11-02T03:37:11.158Z,90.69
2022-11-02T03:42:18.862Z,90.19
2022-11-02T03:47:23.867Z,89.22
2022-11-02T03:52:30.195Z,90.07
2022-11-02T03:57:43.325Z,90.56
2022-11-02T04:02:48.904Z,90.35
2022-11-02T04:08:12.107Z,90.59
2022-11-02T04:13:32.591Z,89.76
2022-11-02T04:18:53.382Z,89.91
2022-11-02T04:24:15.194Z,91.05
2022-11-02T04:29:18.844Z,92.22
2022-11-02T04:34:21.228Z,92.92
2022-11-02T04:39:22.968Z,92.72
2022-11-02T04:44:27.917Z,93.47
2022-11-02T04:49:40.294Z,93.34
2022-11-02T04:54:46.275Z,92.36
2022-11-02T04:59:48.381Z,92.49
2022-11-02T05:04:50.383Z,92.69
2022-11-02T05:09:53.094Z,93.05
2022-11-02T05:14:54.865Z,91.49
2022-11-02T05:19:57.152Z,90.76
2022-11-02T05:24:59.145Z,90.71
2022-11-02T05:30:01.092Z,91.00
2022-11-02T05:35:04.681Z,91.26
2022-11-02T05:40:08.808Z,91.08
2022-11-02T05:45:11.912Z,89.72
2022-11-02T05:50:13.727Z,90.41
2022-11-02T05:55:15.531Z,91.09
2022-11-02T06:00:17.459Z,90.55
2022-11-02T06:05:19.185Z,89.77
2022-11-02T06:10:20.875Z,88.84
2022-11-02T06:15:22.631Z,89.45
2022-11-02T06:20:24.501Z,89.62
2022-11-02T06:25:26.428Z,90.19
2022-11-02T06:30:28.159Z,90.62
2022-11-02T06:35:29.817Z,90.32
2022-11-02T06:40:31.702Z,90.75
2022-11-02T06:45:33.457Z,91.26
2022-11-02T06:50:35.128Z,91.23
2022-11-02T06:55:36.836Z,90.65
2022-11-02T07:00:38.680Z,91.37
2022-11-02T07:05:40.496Z,92.00
2022-11-02T07:10:42.114Z,92.96
2022-11-02T07:15:43.900Z,93.71
2022-11-02T07:20:45.670Z,94.22
2022-11-02T07:25:47.370Z,94.72
2022-11-02T07:30:49.983Z,95.40
2022-11-02T07:35:51.930Z,95.49
2022-11-02T07:40:53.645Z,95.77
2022-11-02T07:45:56.116Z,96.03
2022-11-02T07:51:00.873Z,96.49
2022-11-02T07:56:04.200Z,97.16
2022-11-02T08:01:06.069Z,97.45
2022-11-02T08:06:08.059Z,97.89
2022-11-02T08:11:10.048Z,98.00
2022-11-02T08:16:11.887Z,98.22
2022-11-02T08:21:13.514Z,99.25
2022-11-02T08:26:15.274Z,100.00
2022-11-02T08:31:17.758Z,100.00
2022-11-02T08:36:19.480Z,100.00
2022-11-02T08:41:22.309Z,100.00
2022-11-02T08:46:24.683Z,100.00
2022-11-02T08:51:26.471Z,100.00
2022-11-02T08:56:28.601Z,100.00
2022-11-02T09:01:30.836Z,100.00
2022-11-02T09:06:32.854Z,100.00
2022-11-02T09:11:34.804Z,100.00
2022-11-02T09:16:41.206Z,100.00
2022-11-02T09:21:43.930Z,100.00
2022-11-02T09:26:45.784Z,100.00
2022-11-02T09:31:48.936Z,100.00
2022-11-02T09:36:50.832Z,100.00
2022-11-02T09:42:09.500Z,100.00
2022-11-02T09:48:10.857Z,100.00
2022-11-02T09:52:38.347Z,100.00
2022-11-02T09:57:43.984Z,100.00
2022-11-02T10:03:07.162Z,99.69
2022-11-02T10:08:36.611Z,98.85
2022-11-02T10:13:52.653Z,96.69
2022-11-02T10:18:58.362Z,94.64
2022-11-02T10:24:18.663Z,92.11
2022-11-02T10:29:38.839Z,92.00
2022-11-02T10:34:42.247Z,89.78
2022-11-02T10:40:02.439Z,87.85
2022-11-02T10:45:27.469Z,85.75
2022-11-02T10:50:59.434Z,84.84
2022-11-02T10:56:16.317Z,84.77
2022-11-02T11:01:18.101Z,81.42
2022-11-02T11:06:20.551Z,79.13
2022-11-02T11:11:27.232Z,80.45
2022-11-02T11:16:42.350Z,79.65
2022-11-02T11:21:44.530Z,78.52
2022-11-02T11:26:46.501Z,78.82
2022-11-02T11:31:48.639Z,78.76
2022-11-02T11:36:50.511Z,79.93
2022-11-02T11:41:52.502Z,80.90
2022-11-02T11:46:57.787Z,79.67
2022-11-02T11:52:01.842Z,78.74
2022-11-02T11:57:25.365Z,79.53
2022-11-02T12:02:41.060Z,78.33
2022-11-02T12:08:07.766Z,77.79
2022-11-02T12:13:43.201Z,77.95
2022-11-02T12:18:50.347Z,77.69
2022-11-02T12:24:13.623Z,77.14
2022-11-02T12:29:47.602Z,75.88
2022-11-02T12:35:23.098Z,75.79
2022-11-02T12:40:43.325Z,73.98
2022-11-02T12:45:56.999Z,74.46
2022-11-02T12:51:21.956Z,73.81
2022-11-02T12:56:42.806Z,73.47
2022-11-02T13:01:47.409Z,74.35
2022-11-02T13:06:53.944Z,74.77
2022-11-02T13:12:14.633Z,75.72
2022-11-02T13:17:49.973Z,75.72
2022-11-02T13:23:04.617Z,74.78
2022-11-02T13:28:30.912Z,75.54
2022-11-02T13:33:54.793Z,76.13
2022-11-02T13:39:06.323Z,76.28
2022-11-02T13:44:34.943Z,78.07
2022-11-02T13:49:41.209Z,76.89
2022-11-02T13:54:52.124Z,76.75
2022-11-02T13:59:54.311Z,76.09
2022-11-02T14:04:56.288Z,75.85
2022-11-02T14:10:07.260Z,75.02
2022-11-02T14:15:14.817Z,75.14
2022-11-02T14:20:35.910Z,75.19
2022-11-02T14:25:54.975Z,75.74
2022-11-02T14:31:02.057Z,76.38
2022-11-02T14:36:09.690Z,76.40
2022-11-02T14:41:44.115Z,76.39
2022-11-02T14:47:07.783Z,76.31
2022-11-02T14:52:15.641Z,76.28
2022-11-02T14:57:17.235Z,76.02
2022-11-02T15:02:27.925Z,76.91
2022-11-02T15:07:29.535Z,77.66
2022-11-02T15:12:41.012Z,78.21
2022-11-02T15:17:42.648Z,79.57
2022-11-02T15:22:48.685Z,79.77
2022-11-02T15:27:53.622Z,80.21
2022-11-02T15:33:06.147Z,81.03
2022-11-02T15:38:17.357Z,81.12
2022-11-02T15:43:50.124Z,81.18
2022-11-02T15:49:00.174Z,82.25
2022-11-02T15:54:20.127Z,82.82
2022-11-02T15:59:24.943Z,83.27
2022-11-02T16:04:27.822Z,84.20
2022-11-02T16:09:32.988Z,83.97
2022-11-02T16:14:34.679Z,83.85
2022-11-02T16:19:36.405Z,84.49
2022-11-02T16:24:47.050Z,84.93
2022-11-02T16:29:50.464Z,84.89
2022-11-02T16:34:52.256Z,84.93
2022-11-02T16:39:54.240Z,84.83
2022-11-02T16:45:00.737Z,85.43
2022-11-02T16:50:03.891Z,85.13
2022-11-02T16:55:33.765Z,85.26
2022-11-02T17:00:36.126Z,85.22
2022-11-02T17:05:42.694Z,85.43
2022-11-02T17:10:44.811Z,85.47
2022-11-02T17:15:51.424Z,85.65
2022-11-02T17:21:29.210Z,86.18
2022-11-02T17:26:37.334Z,86.32
2022-11-02T17:31:41.211Z,86.28
2022-11-02T17:36:44.824Z,86.13
2022-11-02T17:42:11.904Z,86.50
2022-11-02T17:47:16.600Z,86.32
2022-11-02T17:52:18.367Z,85.81
2022-11-02T17:57:20.851Z,86.93
2022-11-02T18:02:22.809Z,87.16
2022-11-02T18:07:24.489Z,87.08
2022-11-02T18:12:26.178Z,86.96
2022-11-02T18:17:31.086Z,86.75
2022-11-02T18:22:36.453Z,86.95
2022-11-02T18:27:38.500Z,87.09
2022-11-02T18:32:41.818Z,87.23
2022-11-02T18:37:43.816Z,87.11
2022-11-02T18:42:46.228Z,86.98
2022-11-02T18:47:47.853Z,87.59
2022-11-02T18:52:50.731Z,87.30
2022-11-02T18:57:52.418Z,87.14
2022-11-02T19:02:54.124Z,87.89
2022-11-02T19:08:18.424Z,88.57
2022-11-02T19:13:20.139Z,88.33
2022-11-02T19:18:21.816Z,88.73
2022-11-02T19:23:23.484Z,88.31
2022-11-02T19:28:25.158Z,88.12
2022-11-02T19:33:29.076Z,88.18
2022-11-02T19:38:36.222Z,87.97
2022-11-02T19:43:39.207Z,88.26
2022-11-02T19:48:40.911Z,88.18
2022-11-02T19:53:44.839Z,88.24
2022-11-02T19:58:49.367Z,88.16
2022-11-02T20:03:51.544Z,87.49
2022-11-02T20:08:57.266Z,87.67
2022-11-02T20:14:01.199Z,87.93
2022-11-02T20:19:03.046Z,88.26
2022-11-02T20:24:05.414Z,88.61
2022-11-02T20:29:09.529Z,88.58
2022-11-02T20:34:13.324Z,88.82
2022-11-02T20:39:15.637Z,88.54
2022-11-02T20:44:19.147Z,88.48
2022-11-02T20:49:44.274Z,88.79
2022-11-02T20:54:44.233Z,88.44
2022-11-02T20:59:45.983Z,89.21
2022-11-02T21:04:47.687Z,88.49
2022-11-02T21:09:49.588Z,88.16
2022-11-02T21:14:51.233Z,87.87
2022-11-02T21:19:58.213Z,87.84
2022-11-02T21:25:11.477Z,88.05
2022-11-02T21:30:13.838Z,87.56
2022-11-02T21:35:15.586Z,87.03
2022-11-02T21:40:17.243Z,86.87
2022-11-02T21:45:20.072Z,86.25
2022-11-02T21:50:24.540Z,85.48
2022-11-02T21:55:26.159Z,86.11
2022-11-02T22:00:47.935Z,85.32
2022-11-02T22:05:55.672Z,86.50
2022-11-02T22:10:57.531Z,86.36
2022-11-02T22:16:07.589Z,86.14
2022-11-02T22:21:10.600Z,85.77
2022-11-02T22:26:14.346Z,85.56
2022-11-02T22:31:25.459Z,84.98
2022-11-02T22:36:29.724Z,85.15
2022-11-02T22:41:33.816Z,85.19
2022-11-02T22:46:39.075Z,85.52
2022-11-02T22:51:43.588Z,85.44
2022-11-02T22:56:47.666Z,85.20
2022-11-02T23:01:51.208Z,85.42
2022-11-02T23:06:53.025Z,84.77
2022-11-02T23:11:54.706Z,84.91
2022-11-02T23:16:56.692Z,84.57
2022-11-02T23:22:21.684Z,85.14
2022-11-02T23:27:23.801Z,85.19
2022-11-02T23:32:28.216Z,83.25
2022-11-02T23:37:30.535Z,84.42
2022-11-02T23:42:32.390Z,83.27
2022-11-02T23:47:52.475Z,84.50
2022-11-02T23:53:13.093Z,84.40
2022-11-02T23:58:14.849Z,84.19
